This is the latest recevied weather packets stored in our database for station/object IS0HYQ-12. If no packets are shown the sender has not sent any weather packets the latest 10 day(s).
| Time | Temp. | Humidity | Pressure | Rain* | Wind** | Luminosity | Snow |
|---|---|---|---|---|---|---|---|
| 1776954964 | 32.22° C | 10% | 1016.4 hPa | - | - | - | - |
| 1776953163 | 32.22° C | 14% | 1016.3 hPa | - | - | - | - |
| 1776952250 | 35° C | 13% | 1016.5 hPa | - | - | - | - |
| 1776951350 | 36.11° C | 16% | 1016.5 hPa | - | - | - | - |
| 1776950449 | 33.33° C | 19% | 1016.6 hPa | - | - | - | - |
| 1776949549 | 31.11° C | 28% | 1016.8 hPa | - | - | - | - |
| 1776948649 | 30° C | 31% | 1017.1 hPa | - | - | - | - |
| 1776947748 | 31.11° C | 27% | 1017.2 hPa | - | - | - | - |
| 1776946848 | 31.11° C | 26% | 1017.4 hPa | - | - | - | - |
| 1776945947 | 29.44° C | 26% | 1017.5 hPa | - | - | - | - |
| 1776945047 | 28.33° C | 32% | 1017.5 hPa | - | - | - | - |
| 1776944147 | 28.33° C | 34% | 1017.5 hPa | - | - | - | - |
| 1776943246 | 27.78° C | 31% | 1017.7 hPa | - | - | - | - |
| 1776942346 | 26.67° C | 30% | 1017.8 hPa | - | - | - | - |
| 1776941445 | 27.22° C | 39% | 1017.8 hPa | - | - | - | - |
| 1776940558 | 26.67° C | 42% | 1018 hPa | - | - | - | - |
| 1776939657 | 26.67° C | 43% | 1018 hPa | - | - | - | - |
| 1776938757 | 26.67° C | 44% | 1018.1 hPa | - | - | - | - |
| 1776937844 | 26.67° C | 48% | 1018.2 hPa | - | - | - | - |
| 1776936944 | 26.67° C | 49% | 1018.3 hPa | - | - | - | - |
| 1776936044 | 26.67° C | 47% | 1018.1 hPa | - | - | - | - |
| 1776935144 | 26.67° C | 46% | 1018.2 hPa | - | - | - | - |
| 1776934244 | 27.78° C | 43% | 1018.1 hPa | - | - | - | - |
| 1776933343 | 27.22° C | 44% | 1018.1 hPa | - | - | - | - |
| 1776932443 | 21.11° C | 83% | 1018.1 hPa | - | - | - | - |
* Rain since midnight (hover to see other rain measurements)
** Current wind speed in m/s (hover to see current wind gust speed)